Time;durP1;ratioP1;P1;durP2;ratioP2;P2;SDS_P1;SDS_P2;PMS_P1;PMS_P2;Temp;Humidity;BMP_temperature;BMP_pressure;BME280_temperature;BME280_humidity;BME280_pressure;Samples;Min_cycle;Max_cycle;Signal;HPM_P1;HPM_P2
2023/07/03 00:02:08;;;;;;;8.15;3.67;;;16.10;93.50;;;;;;4924153;29;20040;-64
2023/07/03 00:04:35;;;;;;;8.52;4.05;;;16.10;93.60;;;;;;4922160;29;20036;-64
2023/07/03 00:07:02;;;;;;;9.27;4.38;;;16.00;93.70;;;;;;4925978;29;20039;-65
2023/07/03 00:09:29;;;;;;;7.88;3.78;;;16.00;93.80;;;;;;4920729;29;20043;-63
2023/07/03 00:11:54;;;;;;;7.50;3.88;;;16.00;93.90;;;;;;4920013;29;20508;-64
2023/07/03 00:14:20;;;;;;;7.57;3.83;;;15.90;94.10;;;;;;4923879;29;20070;-64
2023/07/03 00:16:46;;;;;;;9.35;4.15;;;15.90;94.30;;;;;;4911943;29;20032;-64
2023/07/03 00:19:15;;;;;;;11.73;4.40;;;15.90;94.50;;;;;;4926154;29;20103;-63
2023/07/03 00:21:44;;;;;;;9.20;4.15;;;15.90;94.70;;;;;;4924617;29;20082;-63
2023/07/03 00:24:11;;;;;;;9.95;4.10;;;15.90;94.70;;;;;;4922578;29;20071;-63
2023/07/03 00:26:38;;;;;;;11.13;4.45;;;15.90;94.70;;;;;;4919238;29;20044;-64
2023/07/03 00:29:04;;;;;;;9.57;4.20;;;15.80;95.00;;;;;;4920253;29;20456;-63
2023/07/03 00:31:30;;;;;;;10.45;3.97;;;15.80;95.10;;;;;;4916905;29;20032;-63
2023/07/03 00:33:58;;;;;;;6.97;3.80;;;15.80;95.30;;;;;;4909573;29;20808;-63
2023/07/03 00:36:25;;;;;;;9.77;4.10;;;15.80;95.20;;;;;;4925155;29;20080;-63
2023/07/03 00:38:51;;;;;;;10.75;4.15;;;15.80;95.20;;;;;;4908392;29;20103;-63
2023/07/03 00:41:17;;;;;;;6.13;3.47;;;15.80;95.30;;;;;;4922908;29;20123;-63
2023/07/03 00:43:43;;;;;;;9.25;4.00;;;15.70;95.40;;;;;;4920346;29;20469;-65
2023/07/03 00:46:10;;;;;;;8.05;4.40;;;15.70;95.60;;;;;;4908593;29;20126;-64
2023/07/03 00:48:40;;;;;;;10.70;4.43;;;15.70;95.60;;;;;;4915396;29;20520;-64
2023/07/03 00:51:08;;;;;;;7.30;3.63;;;15.70;95.60;;;;;;4918322;29;20031;-64
2023/07/03 00:53:34;;;;;;;6.32;3.55;;;15.70;95.70;;;;;;4921822;29;20046;-64
2023/07/03 00:56:05;;;;;;;9.98;4.15;;;15.70;95.80;;;;;;4922716;29;20043;-64
2023/07/03 00:58:32;;;;;;;8.82;4.18;;;15.70;96.00;;;;;;4921082;29;20039;-63
2023/07/03 01:01:16;;;;;;;10.98;4.95;;;15.70;96.00;;;;;;4906835;29;20074;-64
2023/07/03 01:03:51;;;;;;;8.50;3.97;;;15.70;96.30;;;;;;4902469;29;20172;-64
2023/07/03 01:06:21;;;;;;;10.80;3.63;;;15.70;96.40;;;;;;4917537;29;20031;-64
2023/07/03 01:08:56;;;;;;;7.45;3.85;;;15.70;96.50;;;;;;4908018;29;20039;-64
2023/07/03 01:11:23;;;;;;;7.90;4.10;;;15.70;96.60;;;;;;4907984;29;20067;-64
2023/07/03 01:13:52;;;;;;;7.75;3.75;;;15.70;96.60;;;;;;4922272;29;20112;-64
2023/07/03 01:16:19;;;;;;;7.65;3.85;;;15.80;96.70;;;;;;4902574;29;20757;-64
2023/07/03 01:18:46;;;;;;;11.88;4.20;;;15.80;96.70;;;;;;4921943;29;20054;-64
2023/07/03 01:21:19;;;;;;;6.93;3.50;;;15.80;96.60;;;;;;4920347;29;20038;-64
2023/07/03 01:23:51;;;;;;;9.38;3.83;;;15.90;96.80;;;;;;4900612;29;20040;-64
2023/07/03 01:26:19;;;;;;;8.45;3.70;;;15.90;97.00;;;;;;4922662;29;20107;-64
2023/07/03 01:28:51;;;;;;;6.88;3.80;;;15.90;97.20;;;;;;4924205;29;20038;-64
2023/07/03 01:31:17;;;;;;;9.25;3.90;;;16.00;97.60;;;;;;4907033;29;20380;-64
2023/07/03 01:33:45;;;;;;;8.82;4.00;;;16.00;97.60;;;;;;4921077;29;20497;-63
2023/07/03 01:36:12;;;;;;;7.10;4.07;;;16.10;97.60;;;;;;4921989;29;20156;-63
2023/07/03 01:38:46;;;;;;;8.40;4.00;;;16.10;97.60;;;;;;4916561;29;20034;-64
2023/07/03 01:41:15;;;;;;;8.38;3.92;;;16.10;97.10;;;;;;4900130;29;20131;-63
2023/07/03 01:43:43;;;;;;;7.93;4.13;;;16.10;97.20;;;;;;4921616;29;20142;-63
2023/07/03 01:46:09;;;;;;;9.68;4.53;;;16.20;97.10;;;;;;4922645;29;20032;-63
2023/07/03 01:48:36;;;;;;;7.15;3.92;;;16.20;96.90;;;;;;4908062;29;20070;-64
2023/07/03 01:51:03;;;;;;;7.35;3.78;;;16.20;96.90;;;;;;4903974;29;20028;-63
2023/07/03 01:53:54;;;;;;;10.43;4.32;;;16.20;96.70;;;;;;4920399;29;20051;-63
2023/07/03 01:56:28;;;;;;;8.30;4.15;;;16.30;96.70;;;;;;4919998;29;20090;-64
2023/07/03 01:59:07;;;;;;;5.78;3.55;;;16.30;96.90;;;;;;4902281;29;20040;-63
2023/07/03 02:01:55;;;;;;;8.45;4.40;;;16.30;97.40;;;;;;4905574;29;20067;-64
2023/07/03 02:04:29;;;;;;;7.43;3.70;;;16.30;97.50;;;;;;4919981;29;20031;-64
2023/07/03 02:06:57;;;;;;;7.72;3.85;;;16.40;97.40;;;;;;4905485;29;20036;-63
2023/07/03 02:09:23;;;;;;;7.53;4.07;;;16.40;97.70;;;;;;4909043;29;20479;-63
2023/07/03 02:11:52;;;;;;;10.32;3.97;;;16.40;97.60;;;;;;4908036;29;20040;-63
2023/07/03 02:14:18;;;;;;;7.82;3.63;;;16.50;97.50;;;;;;4911802;29;20035;-64
2023/07/03 02:16:47;;;;;;;8.35;3.83;;;16.50;97.70;;;;;;4916052;29;20032;-63
2023/07/03 02:19:15;;;;;;;10.40;3.65;;;16.60;97.70;;;;;;4920951;29;20036;-63
2023/07/03 02:21:44;;;;;;;5.20;3.75;;;16.60;97.20;;;;;;4908194;29;20031;-63
2023/07/03 02:24:11;;;;;;;7.28;4.20;;;16.60;97.00;;;;;;4927450;29;20393;-63
2023/07/03 02:26:40;;;;;;;7.30;3.63;;;16.60;96.90;;;;;;4923929;29;20760;-63
2023/07/03 02:29:05;;;;;;;10.50;4.65;;;16.70;96.80;;;;;;4925414;29;20036;-63
2023/07/03 02:31:34;;;;;;;5.88;3.58;;;16.70;96.80;;;;;;4910023;29;20091;-63
2023/07/03 02:33:59;;;;;;;6.53;3.55;;;16.60;97.00;;;;;;4905360;29;20031;-63
2023/07/03 02:36:29;;;;;;;7.55;3.63;;;16.70;97.20;;;;;;4922419;29;20684;-63
2023/07/03 02:38:56;;;;;;;10.45;4.03;;;16.70;97.50;;;;;;4928552;29;20032;-63
2023/07/03 02:41:23;;;;;;;6.43;3.40;;;16.70;97.80;;;;;;4927534;29;20035;-63
2023/07/03 02:43:49;;;;;;;8.52;4.57;;;16.70;98.00;;;;;;4924391;29;20036;-63
2023/07/03 02:46:15;;;;;;;5.65;3.65;;;16.80;98.00;;;;;;4912607;29;20034;-63
2023/07/03 02:48:41;;;;;;;10.00;4.30;;;16.80;98.30;;;;;;4920116;29;20453;-63
2023/07/03 02:51:08;;;;;;;7.95;4.43;;;16.80;98.00;;;;;;4905745;29;20032;-63
2023/07/03 02:53:34;;;;;;;7.68;3.92;;;16.80;98.20;;;;;;4927875;29;20460;-64
2023/07/03 02:56:06;;;;;;;8.60;4.20;;;16.80;98.00;;;;;;4909107;29;20122;-63
2023/07/03 02:58:34;;;;;;;9.13;4.03;;;16.80;98.00;;;;;;4911415;29;20032;-64
2023/07/03 03:01:02;;;;;;;11.95;4.65;;;16.80;98.30;;;;;;4912456;29;20035;-63
2023/07/03 03:03:29;;;;;;;8.10;4.05;;;16.90;98.30;;;;;;4906890;29;20091;-63
2023/07/03 03:05:56;;;;;;;8.75;4.25;;;16.90;98.30;;;;;;4923076;29;20043;-64
2023/07/03 03:08:23;;;;;;;9.07;3.80;;;16.90;98.40;;;;;;4920399;29;20127;-64
2023/07/03 03:10:51;;;;;;;7.28;4.25;;;16.90;98.20;;;;;;4919556;29;20036;-63
2023/07/03 03:13:17;;;;;;;8.05;3.63;;;16.90;98.40;;;;;;4910998;29;20042;-64
2023/07/03 03:15:43;;;;;;;8.63;4.13;;;16.90;98.50;;;;;;4914967;29;20047;-64
2023/07/03 03:18:10;;;;;;;7.22;4.00;;;16.90;98.20;;;;;;4930123;29;20036;-64
2023/07/03 03:20:36;;;;;;;12.98;4.00;;;16.90;98.20;;;;;;4906367;29;20449;-64
2023/07/03 03:23:01;;;;;;;9.93;3.72;;;17.00;98.30;;;;;;4923732;29;20023;-64
2023/07/03 03:25:27;;;;;;;10.48;4.13;;;17.00;98.10;;;;;;4921172;29;20142;-64
2023/07/03 03:27:54;;;;;;;7.15;3.67;;;17.00;98.10;;;;;;4904054;29;20097;-64
2023/07/03 03:30:20;;;;;;;8.02;3.90;;;17.00;98.00;;;;;;4923290;29;20040;-64
2023/07/03 03:32:46;;;;;;;7.72;4.03;;;17.00;98.20;;;;;;4924834;29;20063;-64
2023/07/03 03:35:12;;;;;;;8.00;3.78;;;17.10;98.50;;;;;;4907693;29;20031;-64
2023/07/03 03:37:39;;;;;;;7.10;4.00;;;17.10;98.20;;;;;;4909235;29;20035;-64
2023/07/03 03:40:07;;;;;;;8.02;4.43;;;17.10;98.10;;;;;;4906784;29;20032;-64
2023/07/03 03:42:35;;;;;;;8.07;4.30;;;17.10;98.10;;;;;;4918412;29;20034;-64
2023/07/03 03:45:02;;;;;;;8.15;4.28;;;17.10;97.90;;;;;;4904299;29;20024;-64
2023/07/03 03:47:28;;;;;;;7.82;4.18;;;17.20;97.70;;;;;;4907308;29;20211;-64
2023/07/03 03:49:54;;;;;;;13.85;4.95;;;17.20;97.90;;;;;;4910588;29;20036;-64
2023/07/03 03:52:20;;;;;;;9.68;4.40;;;17.20;97.70;;;;;;4910117;29;20627;-64
2023/07/03 03:54:47;;;;;;;8.45;4.53;;;17.30;97.50;;;;;;4921818;29;20040;-64
2023/07/03 03:57:13;;;;;;;9.55;4.50;;;17.30;98.00;;;;;;4903497;29;20067;-64
2023/07/03 03:59:40;;;;;;;12.63;4.70;;;17.30;97.80;;;;;;4902885;29;20497;-64
2023/07/03 04:02:06;;;;;;;8.20;4.82;;;17.40;97.60;;;;;;4904316;29;20039;-64
2023/07/03 04:04:32;;;;;;;9.65;4.90;;;17.40;97.60;;;;;;4924040;29;20032;-64
2023/07/03 04:06:58;;;;;;;10.10;4.80;;;17.40;98.10;;;;;;4926874;29;20039;-64
2023/07/03 04:09:23;;;;;;;8.35;4.00;;;17.40;98.20;;;;;;4926395;29;20542;-64
2023/07/03 04:11:49;;;;;;;7.25;4.70;;;17.50;98.40;;;;;;4923603;29;20075;-64
2023/07/03 04:14:16;;;;;;;8.80;4.63;;;17.50;98.70;;;;;;4925875;29;20044;-64
2023/07/03 04:16:43;;;;;;;11.93;4.90;;;17.50;98.60;;;;;;4920127;29;20040;-64
2023/07/03 04:19:09;;;;;;;6.82;3.80;;;17.50;98.50;;;;;;4901163;29;20064;-64
2023/07/03 04:21:35;;;;;;;7.57;4.45;;;17.50;98.50;;;;;;4920689;29;20040;-64
2023/07/03 04:24:00;;;;;;;14.60;5.25;;;17.60;98.60;;;;;;4927066;29;20028;-64
2023/07/03 04:26:26;;;;;;;9.55;4.80;;;17.60;98.10;;;;;;4926457;29;20100;-64
2023/07/03 04:28:52;;;;;;;11.43;5.28;;;17.60;98.00;;;;;;4924020;29;20032;-64
2023/07/03 04:31:18;;;;;;;12.07;5.28;;;17.70;97.70;;;;;;4924212;29;20036;-64
2023/07/03 04:33:45;;;;;;;11.43;4.20;;;17.70;97.80;;;;;;4920162;29;20036;-64
2023/07/03 04:36:12;;;;;;;7.80;4.32;;;17.70;97.40;;;;;;4924810;29;20543;-64
2023/07/03 04:38:39;;;;;;;11.20;5.32;;;17.80;97.40;;;;;;4917317;29;20397;-64
2023/07/03 04:41:05;;;;;;;9.07;5.18;;;17.80;97.20;;;;;;4906359;29;20042;-64
2023/07/03 04:43:31;;;;;;;9.48;4.85;;;17.80;97.30;;;;;;4926022;29;20031;-64
2023/07/03 04:46:03;;;;;;;7.65;4.38;;;17.80;97.40;;;;;;4923952;29;20172;-64
2023/07/03 04:48:32;;;;;;;10.73;5.53;;;17.90;98.00;;;;;;4923216;29;20488;-64
2023/07/03 04:50:58;;;;;;;9.05;4.78;;;17.90;97.80;;;;;;4922127;29;20063;-64
2023/07/03 04:53:25;;;;;;;10.50;4.95;;;17.90;97.50;;;;;;4920060;29;20039;-64
2023/07/03 04:55:51;;;;;;;12.73;5.95;;;18.00;97.80;;;;;;4908819;29;20741;-64
2023/07/03 04:58:16;;;;;;;11.77;5.22;;;18.00;97.80;;;;;;4919821;29;20051;-64
2023/07/03 05:00:42;;;;;;;11.35;5.75;;;18.10;97.70;;;;;;4925955;29;20567;-64
2023/07/03 05:03:08;;;;;;;8.35;4.70;;;18.10;97.00;;;;;;4925618;29;20083;-64
2023/07/03 05:05:34;;;;;;;12.23;5.95;;;18.20;97.10;;;;;;4922763;29;20032;-64
2023/07/03 05:08:00;;;;;;;12.20;5.22;;;18.20;97.00;;;;;;4922622;29;20482;-64
2023/07/03 05:10:26;;;;;;;10.82;5.18;;;18.30;97.00;;;;;;4920399;29;20039;-64
2023/07/03 05:12:52;;;;;;;8.00;4.97;;;18.30;96.80;;;;;;4918651;29;20036;-64
2023/07/03 05:15:19;;;;;;;12.75;6.30;;;18.30;96.10;;;;;;4922941;29;20039;-64
2023/07/03 05:17:54;;;;;;;13.05;5.40;;;18.40;96.00;;;;;;4925127;29;20043;-64
2023/07/03 05:20:22;;;;;;;13.83;6.00;;;18.40;96.10;;;;;;4925421;29;20024;-64
2023/07/03 05:22:48;;;;;;;12.88;5.10;;;18.50;96.10;;;;;;4921963;29;20119;-63
2023/07/03 05:25:15;;;;;;;10.90;5.38;;;18.60;95.50;;;;;;4922617;29;20103;-64
2023/07/03 05:27:42;;;;;;;10.43;4.97;;;18.60;94.90;;;;;;4919415;29;20516;-64
2023/07/03 05:30:09;;;;;;;11.63;5.47;;;18.70;94.70;;;;;;4920421;29;20136;-63
2023/07/03 05:32:35;;;;;;;9.65;4.85;;;18.80;94.50;;;;;;4915973;29;20104;-64
2023/07/03 05:35:03;;;;;;;10.02;4.53;;;18.90;93.50;;;;;;4922358;29;20039;-64
2023/07/03 05:37:29;;;;;;;13.98;5.30;;;18.90;93.50;;;;;;4921933;29;20694;-63
2023/07/03 05:39:55;;;;;;;12.77;4.70;;;19.00;93.60;;;;;;4922487;29;20036;-63
2023/07/03 05:42:22;;;;;;;8.38;4.43;;;19.00;92.80;;;;;;4922549;29;20032;-63
2023/07/03 05:44:48;;;;;;;12.35;4.55;;;19.00;92.50;;;;;;4918864;29;20032;-63
2023/07/03 05:47:14;;;;;;;13.55;4.80;;;19.00;92.10;;;;;;4919956;29;20051;-64
2023/07/03 05:49:40;;;;;;;12.50;4.30;;;19.10;92.10;;;;;;4916550;29;20036;-64
2023/07/03 05:52:09;;;;;;;9.77;4.45;;;19.10;92.50;;;;;;4921773;29;20036;-64
2023/07/03 05:54:35;;;;;;;14.88;4.75;;;19.10;91.40;;;;;;4924596;29;20038;-64
2023/07/03 05:57:07;;;;;;;10.27;4.00;;;19.10;91.80;;;;;;4923616;29;20044;-64
2023/07/03 05:59:33;;;;;;;11.32;4.88;;;19.10;92.30;;;;;;4925804;29;20043;-64
2023/07/03 06:01:59;;;;;;;10.68;4.55;;;19.30;92.60;;;;;;4925040;29;20028;-63
2023/07/03 06:04:25;;;;;;;7.70;4.28;;;19.40;92.80;;;;;;4923057;29;20031;-64
2023/07/03 06:06:55;;;;;;;11.23;4.55;;;19.40;92.00;;;;;;4922125;29;20044;-64
2023/07/03 06:09:22;;;;;;;11.68;4.90;;;19.50;91.50;;;;;;4922908;29;20050;-64
2023/07/03 06:11:48;;;;;;;8.88;4.38;;;19.60;91.40;;;;;;4927812;29;20063;-64
2023/07/03 06:14:16;;;;;;;9.40;4.47;;;19.60;91.40;;;;;;4927056;29;20039;-64
2023/07/03 06:16:43;;;;;;;13.40;4.63;;;19.70;92.30;;;;;;4924792;29;20039;-64
2023/07/03 06:19:10;;;;;;;9.63;4.38;;;19.80;92.60;;;;;;4925112;29;20038;-64
2023/07/03 06:21:36;;;;;;;9.88;4.20;;;19.90;91.80;;;;;;4922786;29;20052;-64
2023/07/03 06:24:01;;;;;;;8.45;4.72;;;19.90;92.00;;;;;;4922756;29;20130;-64
2023/07/03 06:26:29;;;;;;;12.07;4.30;;;19.90;92.10;;;;;;4912588;29;20381;-64
2023/07/03 06:28:55;;;;;;;12.27;4.63;;;19.90;91.20;;;;;;4928479;29;20113;-64
2023/07/03 06:31:21;;;;;;;9.45;3.95;;;19.90;91.20;;;;;;4927853;29;20432;-64
2023/07/03 06:33:47;;;;;;;10.38;4.03;;;19.90;91.90;;;;;;4925024;29;20048;-64
2023/07/03 06:36:20;;;;;;;8.55;4.07;;;19.90;92.20;;;;;;4927623;29;20068;-64
2023/07/03 06:38:53;;;;;;;12.30;4.63;;;20.00;92.00;;;;;;4922283;29;20036;-64
2023/07/03 06:41:37;;;;;;;11.52;4.53;;;20.00;92.00;;;;;;4921732;29;20036;-64
2023/07/03 06:44:05;;;;;;;9.10;4.25;;;20.00;91.40;;;;;;4925061;29;20039;-64
2023/07/03 06:46:31;;;;;;;13.40;4.05;;;20.10;91.00;;;;;;4925423;29;20039;-64
2023/07/03 06:48:57;;;;;;;12.18;4.25;;;20.20;90.80;;;;;;4926750;29;20479;-64
2023/07/03 06:51:24;;;;;;;10.32;4.18;;;20.20;90.10;;;;;;4922312;29;20051;-64
2023/07/03 06:53:50;;;;;;;8.40;3.85;;;20.20;90.20;;;;;;4923471;29;20066;-64
2023/07/03 06:56:18;;;;;;;10.45;4.35;;;20.20;90.30;;;;;;4924148;29;20443;-64
2023/07/03 06:58:43;;;;;;;13.85;4.43;;;20.20;90.60;;;;;;4904564;29;20417;-64
2023/07/03 07:01:12;;;;;;;12.07;4.60;;;20.20;90.00;;;;;;4921828;29;20032;-64
2023/07/03 07:03:39;;;;;;;10.85;4.38;;;20.20;89.60;;;;;;4925186;29;20040;-64
2023/07/03 07:06:13;;;;;;;12.40;4.22;;;20.20;90.60;;;;;;4927550;29;20024;-64
2023/07/03 07:08:39;;;;;;;14.38;4.78;;;20.30;90.30;;;;;;4924164;29;20027;-63
2023/07/03 07:11:11;;;;;;;15.30;5.18;;;20.30;89.30;;;;;;4925107;29;20030;-64
2023/07/03 07:13:44;;;;;;;11.95;4.03;;;20.30;90.30;;;;;;4917793;29;20692;-63
2023/07/03 07:16:16;;;;;;;11.13;3.78;;;20.50;90.10;;;;;;4916640;29;20038;-64
2023/07/03 07:18:42;;;;;;;10.23;4.43;;;20.50;89.60;;;;;;4918588;29;20043;-64
2023/07/03 07:21:08;;;;;;;11.43;4.80;;;20.50;88.90;;;;;;4928167;29;20782;-66
2023/07/03 07:23:34;;;;;;;12.85;4.32;;;20.50;88.40;;;;;;4922378;29;20048;-66
2023/07/03 07:26:00;;;;;;;10.10;4.20;;;20.50;88.40;;;;;;4908644;29;20408;-65
2023/07/03 07:28:26;;;;;;;10.48;3.70;;;20.70;88.90;;;;;;4924132;29;20047;-64
2023/07/03 07:30:51;;;;;;;13.70;4.50;;;20.70;88.20;;;;;;4922290;29;20567;-63
2023/07/03 07:33:17;;;;;;;15.38;4.43;;;20.80;89.10;;;;;;4921061;29;20235;-65
2023/07/03 07:35:43;;;;;;;12.68;4.40;;;20.90;89.10;;;;;;4918549;29;20044;-64
2023/07/03 07:38:11;;;;;;;10.73;4.40;;;20.90;87.50;;;;;;4924783;29;20028;-65
2023/07/03 07:40:37;;;;;;;12.35;4.20;;;21.00;88.80;;;;;;4926370;29;20036;-65
2023/07/03 07:43:03;;;;;;;13.30;4.40;;;21.10;87.70;;;;;;4925729;29;20027;-65
2023/07/03 07:45:30;;;;;;;12.98;4.05;;;21.10;87.00;;;;;;4923767;29;20036;-65
2023/07/03 07:47:56;;;;;;;12.48;4.65;;;21.10;85.20;;;;;;4923171;29;20040;-64
2023/07/03 07:50:23;;;;;;;21.40;9.25;;;21.10;85.90;;;;;;4921662;29;20586;-64
2023/07/03 07:52:49;;;;;;;14.50;5.43;;;21.20;86.60;;;;;;4920404;29;20544;-65
2023/07/03 07:55:16;;;;;;;9.98;4.32;;;21.30;85.80;;;;;;4921021;29;20064;-64
2023/07/03 07:57:42;;;;;;;8.85;4.22;;;21.40;85.20;;;;;;4926594;29;20050;-65
2023/07/03 08:00:08;;;;;;;12.52;4.10;;;21.30;84.90;;;;;;4925594;29;20023;-64
2023/07/03 08:02:37;;;;;;;11.63;4.65;;;21.20;85.60;;;;;;4922799;29;20035;-65
2023/07/03 08:05:04;;;;;;;10.80;4.70;;;21.20;87.10;;;;;;4923797;29;20091;-64
2023/07/03 08:07:30;;;;;;;10.40;4.85;;;21.20;86.90;;;;;;4920610;29;20046;-64
2023/07/03 08:09:56;;;;;;;13.07;4.20;;;21.20;86.00;;;;;;4920343;29;20032;-64
2023/07/03 08:12:22;;;;;;;11.60;4.15;;;21.30;86.40;;;;;;4918077;29;20043;-64
2023/07/03 08:14:48;;;;;;;13.75;4.13;;;21.50;86.60;;;;;;4924373;29;20040;-63
2023/07/03 08:17:13;;;;;;;15.75;4.38;;;21.60;85.20;;;;;;4925975;29;20035;-63
2023/07/03 08:19:39;;;;;;;12.73;4.10;;;21.70;82.80;;;;;;4922903;29;20050;-64
2023/07/03 08:22:05;;;;;;;13.18;3.67;;;21.70;83.10;;;;;;4922839;29;20042;-65
2023/07/03 08:24:31;;;;;;;12.52;4.57;;;21.60;82.50;;;;;;4920376;29;20032;-65
2023/07/03 08:26:56;;;;;;;9.38;4.25;;;21.60;83.20;;;;;;4920790;29;20135;-64
2023/07/03 08:29:22;;;;;;;13.13;3.83;;;21.50;83.50;;;;;;4917824;29;20132;-64
2023/07/03 08:31:48;;;;;;;9.57;3.65;;;21.40;80.70;;;;;;4924864;29;20035;-64
2023/07/03 08:34:15;;;;;;;7.25;3.30;;;21.40;79.60;;;;;;4925357;29;20046;-64
2023/07/03 08:36:41;;;;;;;8.90;3.13;;;21.40;78.40;;;;;;4924239;29;20028;-64
2023/07/03 08:39:06;;;;;;;9.32;3.22;;;21.40;77.50;;;;;;4923579;29;20122;-65
2023/07/03 08:41:45;;;;;;;6.45;3.25;;;21.40;74.40;;;;;;4920853;29;20130;-64
2023/07/03 08:44:12;;;;;;;10.23;3.20;;;21.40;76.60;;;;;;4920873;29;20028;-65
2023/07/03 08:46:38;;;;;;;7.38;2.92;;;21.50;78.30;;;;;;4917004;29;20418;-64
2023/07/03 08:49:05;;;;;;;9.02;3.03;;;21.60;71.60;;;;;;4923142;29;20043;-65
2023/07/03 08:51:36;;;;;;;7.82;2.78;;;21.60;72.00;;;;;;4921650;29;20671;-65
2023/07/03 08:54:18;;;;;;;8.55;3.58;;;21.70;70.10;;;;;;4924008;29;20031;-64
2023/07/03 08:56:44;;;;;;;10.20;3.60;;;21.70;70.70;;;;;;4921467;29;20032;-64
2023/07/03 08:59:10;;;;;;;6.68;2.65;;;21.80;69.10;;;;;;4921690;29;20031;-64
2023/07/03 09:01:54;;;;;;;7.53;2.88;;;21.80;68.80;;;;;;4920476;29;20087;-64
2023/07/03 09:04:45;;;;;;;5.15;2.60;;;21.80;68.40;;;;;;4918006;29;20036;-64
2023/07/03 09:07:40;;;;;;;8.88;3.28;;;21.90;70.50;;;;;;4920187;29;20667;-64
2023/07/03 09:10:12;;;;;;;6.95;2.80;;;21.90;70.30;;;;;;4922003;29;20042;-64
2023/07/03 09:12:43;;;;;;;9.90;2.38;;;22.00;69.40;;;;;;4922706;29;20043;-65
2023/07/03 09:15:18;;;;;;;7.75;2.33;;;21.90;66.80;;;;;;4922215;29;20500;-64
2023/07/03 09:17:46;;;;;;;6.55;2.78;;;22.10;66.40;;;;;;4907293;29;20044;-64
2023/07/03 09:20:14;;;;;;;7.53;3.08;;;22.30;67.20;;;;;;4919530;29;20023;-64
2023/07/03 09:23:06;;;;;;;7.20;2.85;;;22.40;63.90;;;;;;4916270;29;20404;-64
2023/07/03 09:25:48;;;;;;;6.03;2.50;;;22.50;65.80;;;;;;4920099;29;20078;-64
2023/07/03 09:28:14;;;;;;;12.90;3.22;;;22.70;65.90;;;;;;4923002;29;20035;-64
2023/07/03 09:30:40;;;;;;;8.43;3.20;;;22.90;65.80;;;;;;4922162;29;20047;-64
2023/07/03 09:33:06;;;;;;;8.23;2.85;;;23.00;65.60;;;;;;4922033;29;20043;-62
2023/07/03 09:35:35;;;;;;;5.70;3.08;;;23.20;63.90;;;;;;4918815;29;20083;-64
2023/07/03 09:38:04;;;;;;;9.55;2.90;;;23.30;63.50;;;;;;4919525;29;20046;-64
2023/07/03 09:40:37;;;;;;;6.88;2.55;;;23.40;63.50;;;;;;4916109;29;20036;-64
2023/07/03 09:43:11;;;;;;;7.60;3.08;;;23.30;64.40;;;;;;4925003;29;20051;-64
2023/07/03 09:45:37;;;;;;;7.53;2.92;;;23.20;64.20;;;;;;4922702;29;20056;-64
2023/07/03 09:48:15;;;;;;;8.20;2.97;;;23.00;64.60;;;;;;4920783;29;20801;-64
2023/07/03 09:50:41;;;;;;;8.23;3.20;;;23.00;66.20;;;;;;4920490;29;20040;-64
2023/07/03 09:53:16;;;;;;;7.78;2.92;;;23.00;65.00;;;;;;4920969;29;20222;-65
2023/07/03 09:55:43;;;;;;;7.85;2.55;;;23.10;61.60;;;;;;4917082;29;20047;-65
2023/07/03 09:58:16;;;;;;;9.32;2.72;;;23.10;62.20;;;;;;4918572;29;20247;-65
2023/07/03 10:01:15;;;;;;;8.13;3.20;;;23.10;61.90;;;;;;4921631;29;20039;-65
2023/07/03 10:03:40;;;;;;;8.60;3.70;;;23.10;62.60;;;;;;4921425;29;20059;-64
2023/07/03 10:06:18;;;;;;;8.70;3.05;;;23.10;63.70;;;;;;4924475;29;20071;-64
2023/07/03 10:08:51;;;;;;;5.57;2.00;;;23.00;62.10;;;;;;4919656;29;20040;-64
2023/07/03 10:11:39;;;;;;;12.45;2.72;;;23.00;63.40;;;;;;4919540;29;20118;-65
2023/07/03 10:14:08;;;;;;;7.70;2.38;;;23.00;60.80;;;;;;4919280;29;20027;-64
2023/07/03 10:16:36;;;;;;;9.35;2.60;;;22.90;61.50;;;;;;4915769;29;20087;-65
2023/07/03 10:19:03;;;;;;;7.10;2.55;;;22.80;61.00;;;;;;4923576;29;20039;-64
2023/07/03 10:21:30;;;;;;;5.60;2.22;;;22.60;60.70;;;;;;4922315;29;20123;-64
2023/07/03 10:23:58;;;;;;;11.05;2.53;;;22.50;61.20;;;;;;4921453;29;20040;-65
2023/07/03 10:26:31;;;;;;;9.68;2.80;;;22.50;64.80;;;;;;4921107;29;20937;-64
2023/07/03 10:29:00;;;;;;;6.63;2.25;;;22.70;63.70;;;;;;4919807;29;20162;-64
2023/07/03 10:31:53;;;;;;;6.18;2.38;;;22.90;64.60;;;;;;4920725;29;20031;-64
2023/07/03 10:34:44;;;;;;;9.98;3.10;;;23.30;63.60;;;;;;4914073;29;20110;-64
2023/07/03 10:37:13;;;;;;;8.07;2.42;;;23.60;59.70;;;;;;4922121;29;20031;-64
2023/07/03 10:39:46;;;;;;;7.00;2.50;;;23.70;61.20;;;;;;4922710;29;20028;-66
2023/07/03 10:42:23;;;;;;;8.73;3.03;;;23.60;61.00;;;;;;4922148;29;20031;-66
2023/07/03 10:44:52;;;;;;;13.02;2.70;;;23.60;62.70;;;;;;4922399;29;20054;-65
2023/07/03 10:47:37;;;;;;;11.80;2.70;;;23.70;62.40;;;;;;4923435;29;20195;-65
2023/07/03 10:50:04;;;;;;;9.57;2.30;;;23.80;61.80;;;;;;4922672;29;20075;-65
2023/07/03 10:52:54;;;;;;;7.85;2.28;;;24.00;62.50;;;;;;4921572;29;20503;-64
2023/07/03 10:55:41;;;;;;;13.10;2.35;;;24.20;62.10;;;;;;4924006;29;20039;-64
2023/07/03 10:58:19;;;;;;;7.45;2.22;;;24.30;59.50;;;;;;4923160;29;20124;-63
2023/07/03 11:01:03;;;;;;;5.82;2.47;;;24.30;60.30;;;;;;4923734;29;20055;-64
2023/07/03 11:03:42;;;;;;;7.63;2.10;;;24.40;61.00;;;;;;4923860;29;20032;-63
2023/07/03 11:06:19;;;;;;;7.95;2.22;;;24.40;60.80;;;;;;4922561;29;20138;-63
2023/07/03 11:08:54;;;;;;;9.63;2.40;;;24.40;60.40;;;;;;4919355;29;20035;-63
2023/07/03 11:12:05;;;;;;;5.53;2.15;;;24.30;58.50;;;;;;4924194;29;20552;-63
2023/07/03 11:15:13;;;;;;;12.05;1.92;;;24.10;60.60;;;;;;4867888;29;20181;-65
2023/07/03 11:18:10;;;;;;;8.18;2.60;;;23.80;59.20;;;;;;4864157;29;20114;-64
2023/07/03 11:21:05;;;;;;;7.45;2.50;;;23.50;58.70;;;;;;4900055;29;20079;-64
2023/07/03 11:23:56;;;;;;;9.18;2.33;;;23.10;59.00;;;;;;4921930;29;20424;-64
2023/07/03 11:26:36;;;;;;;12.02;3.00;;;22.90;60.50;;;;;;4904540;29;20042;-64
2023/07/03 11:29:05;;;;;;;9.27;2.60;;;22.80;61.80;;;;;;4924289;29;20039;-64
2023/07/03 11:31:31;;;;;;;7.97;2.00;;;22.80;63.10;;;;;;4923894;29;20039;-64
2023/07/03 11:33:58;;;;;;;11.25;2.83;;;22.90;64.10;;;;;;4924752;29;20032;-64
2023/07/03 11:36:43;;;;;;;14.95;3.03;;;23.00;63.30;;;;;;4923085;29;20075;-63
2023/07/03 11:39:20;;;;;;;15.68;3.13;;;23.20;64.40;;;;;;4922254;29;20030;-64
2023/07/03 11:42:10;;;;;;;9.88;2.40;;;23.30;63.90;;;;;;4919948;29;20127;-64
2023/07/03 11:44:57;;;;;;;11.13;2.75;;;23.40;63.20;;;;;;4917686;29;20748;-64
2023/07/03 11:47:25;;;;;;;6.72;2.30;;;23.40;61.80;;;;;;4926822;29;20035;-64
2023/07/03 11:49:59;;;;;;;8.15;2.60;;;23.30;61.70;;;;;;4925223;29;20047;-64
2023/07/03 11:52:34;;;;;;;8.77;2.58;;;23.30;62.70;;;;;;4922825;29;20043;-64
2023/07/03 11:55:04;;;;;;;7.10;2.45;;;23.30;63.70;;;;;;4922252;29;20031;-63
2023/07/03 11:57:42;;;;;;;10.38;2.40;;;23.20;63.90;;;;;;4923682;29;20052;-63
2023/07/03 12:00:22;;;;;;;8.77;2.42;;;23.30;64.50;;;;;;4921343;29;20028;-63
2023/07/03 12:02:48;;;;;;;6.80;2.15;;;23.30;63.60;;;;;;4918084;29;20631;-63
2023/07/03 12:05:45;;;;;;;8.68;2.38;;;23.30;64.50;;;;;;4927668;29;20083;-63
2023/07/03 12:08:26;;;;;;;5.97;2.10;;;23.30;65.10;;;;;;4922247;29;20031;-63
2023/07/03 12:10:54;;;;;;;9.70;2.45;;;23.20;62.40;;;;;;4922785;29;20044;-63
2023/07/03 12:13:41;;;;;;;10.00;2.25;;;23.20;63.90;;;;;;4921868;29;20032;-63
2023/07/03 12:16:13;;;;;;;6.35;1.95;;;23.20;64.10;;;;;;4921692;29;20035;-64
2023/07/03 12:18:39;;;;;;;11.13;2.70;;;23.30;63.70;;;;;;4916743;29;20558;-64
2023/07/03 12:21:05;;;;;;;8.32;2.45;;;23.40;63.30;;;;;;4920291;29;20085;-63
2023/07/03 12:23:42;;;;;;;8.50;2.50;;;23.40;63.60;;;;;;4924024;29;20048;-64
2023/07/03 12:26:15;;;;;;;8.40;2.25;;;23.50;63.30;;;;;;4923911;29;20028;-63
2023/07/03 12:28:42;;;;;;;8.10;2.42;;;23.50;63.30;;;;;;4922670;29;20072;-63
2023/07/03 12:31:13;;;;;;;10.98;2.35;;;23.40;61.90;;;;;;4922758;29;20066;-63
2023/07/03 12:33:57;;;;;;;6.68;2.83;;;23.40;64.20;;;;;;4918443;29;20893;-64
2023/07/03 12:36:31;;;;;;;8.25;2.15;;;23.40;65.20;;;;;;4920437;29;20119;-64
2023/07/03 12:38:59;;;;;;;8.80;2.20;;;23.50;65.10;;;;;;4909302;29;20943;-63
2023/07/03 12:41:33;;;;;;;8.15;2.60;;;23.50;64.30;;;;;;4925649;29;20087;-63
2023/07/03 12:44:01;;;;;;;8.70;2.00;;;23.50;64.90;;;;;;4924314;29;20425;-63
2023/07/03 12:46:29;;;;;;;10.85;2.55;;;23.60;64.40;;;;;;4923678;29;20040;-63
2023/07/03 12:49:09;;;;;;;10.77;2.97;;;23.70;65.00;;;;;;4920230;29;20131;-63
2023/07/03 12:51:53;;;;;;;10.32;2.55;;;23.70;64.80;;;;;;4919140;29;20036;-64
2023/07/03 12:54:21;;;;;;;9.73;2.53;;;23.80;65.60;;;;;;4918875;29;20054;-63
2023/07/03 12:56:48;;;;;;;8.07;2.55;;;23.80;63.60;;;;;;4920152;29;20150;-63
2023/07/03 12:59:20;;;;;;;11.70;2.58;;;23.80;63.60;;;;;;4924804;29;20063;-63